createdAt,value
2022-12-19T00:02:05.116Z,94.10
2022-12-19T00:04:36.852Z,91.90
2022-12-19T00:07:05.864Z,93.03
2022-12-19T00:09:34.263Z,97.65
2022-12-19T00:12:07.435Z,94.65
2022-12-19T00:14:42.827Z,96.65
2022-12-19T00:19:57.172Z,96.85
2022-12-19T00:22:28.078Z,90.20
2022-12-19T00:24:57.157Z,100.90
2022-12-19T00:27:29.143Z,96.90
2022-12-19T00:29:56.748Z,90.18
2022-12-19T00:32:29.651Z,91.00
2022-12-19T00:34:59.043Z,91.80
2022-12-19T00:37:30.233Z,95.13
2022-12-19T00:39:59.851Z,87.05
2022-12-19T00:42:28.685Z,91.22
2022-12-19T00:44:59.908Z,88.40
2022-12-19T00:47:30.877Z,99.03
2022-12-19T00:50:02.538Z,92.63
2022-12-19T00:52:30.619Z,92.00
2022-12-19T00:55:05.045Z,89.05
2022-12-19T00:57:40.533Z,95.65
2022-12-19T01:00:10.333Z,95.22
2022-12-19T01:02:41.490Z,93.32
2022-12-19T01:05:13.355Z,93.38
2022-12-19T01:07:45.667Z,98.15
2022-12-19T01:10:14.341Z,95.35
2022-12-19T01:12:53.359Z,98.70
2022-12-19T01:15:23.710Z,96.97
2022-12-19T01:17:53.292Z,105.18
2022-12-19T01:20:29.501Z,112.15
2022-12-19T01:23:02.379Z,99.18
2022-12-19T01:25:30.819Z,97.70
2022-12-19T01:28:00.570Z,95.78
2022-12-19T01:30:30.883Z,96.22
2022-12-19T01:33:01.755Z,96.57
2022-12-19T01:35:34.187Z,91.55
2022-12-19T01:38:08.347Z,91.10
2022-12-19T01:40:43.011Z,94.03
2022-12-19T01:43:24.641Z,91.80
2022-12-19T01:46:01.140Z,96.13
2022-12-19T01:48:36.438Z,95.53
2022-12-19T01:51:22.246Z,92.70
2022-12-19T01:54:16.210Z,95.18
2022-12-19T01:56:56.223Z,98.78
2022-12-19T01:59:50.263Z,100.00
2022-12-19T02:02:37.499Z,66.50
2022-12-19T02:05:19.216Z,89.68
2022-12-19T02:08:07.868Z,85.35
2022-12-19T02:10:38.483Z,88.15
2022-12-19T02:13:12.033Z,84.05
2022-12-19T02:16:12.905Z,88.55
2022-12-19T02:19:07.655Z,54.47
2022-12-19T02:21:48.077Z,65.00
2022-12-19T02:24:41.245Z,58.83
2022-12-19T02:27:47.037Z,64.97
2022-12-19T02:30:41.648Z,50.30
2022-12-19T02:33:36.256Z,45.15
2022-12-19T02:36:26.179Z,42.55
2022-12-19T02:39:12.086Z,50.55
2022-12-19T02:41:49.457Z,46.97
2022-12-19T02:44:45.292Z,54.78
2022-12-19T02:47:14.824Z,54.58
2022-12-19T02:49:51.853Z,71.53
2022-12-19T02:52:25.053Z,64.97
2022-12-19T02:55:09.143Z,44.22
2022-12-19T02:58:31.641Z,42.67
2022-12-19T03:01:23.546Z,48.35
2022-12-19T03:04:35.822Z,43.50
2022-12-19T03:07:42.852Z,53.75
2022-12-19T03:10:32.552Z,42.78
2022-12-19T03:13:23.458Z,43.38
2022-12-19T03:15:52.817Z,42.15
2022-12-19T03:18:25.987Z,40.38
2022-12-19T03:21:31.359Z,42.90
2022-12-19T03:24:01.173Z,46.53
2022-12-19T03:26:47.357Z,43.63
2022-12-19T03:29:56.352Z,46.53
2022-12-19T03:32:28.643Z,45.00
2022-12-19T03:35:22.054Z,40.95
2022-12-19T03:37:55.586Z,41.25
2022-12-19T03:40:27.830Z,41.78
2022-12-19T03:43:12.296Z,42.30
2022-12-19T03:46:18.954Z,45.33
2022-12-19T03:48:51.065Z,40.67
2022-12-19T03:51:44.126Z,42.42
2022-12-19T03:54:40.740Z,44.90
2022-12-19T03:57:49.390Z,44.85
2022-12-19T04:00:20.280Z,47.92
2022-12-19T04:03:03.265Z,43.85
2022-12-19T04:05:35.863Z,50.30
2022-12-19T04:10:55.326Z,55.33
2022-12-19T04:13:35.051Z,51.08
2022-12-19T04:16:41.532Z,47.60
2022-12-19T04:19:41.084Z,47.53
2022-12-19T04:22:18.615Z,49.88
2022-12-19T04:24:49.716Z,51.40
2022-12-19T04:27:32.047Z,44.38
2022-12-19T04:30:01.955Z,45.00
2022-12-19T04:32:44.983Z,44.65
2022-12-19T04:35:20.125Z,44.30
2022-12-19T04:37:50.914Z,48.60
2022-12-19T04:40:19.229Z,46.20
2022-12-19T04:42:49.640Z,48.47
2022-12-19T04:45:20.042Z,49.67
2022-12-19T04:47:49.032Z,45.45
2022-12-19T04:50:22.718Z,49.20
2022-12-19T04:52:57.055Z,78.63
2022-12-19T04:55:28.382Z,73.80
2022-12-19T04:57:59.897Z,77.35
2022-12-19T05:00:30.330Z,71.25
2022-12-19T05:03:00.534Z,79.07
2022-12-19T05:05:28.069Z,82.40
2022-12-19T05:08:00.432Z,82.50
2022-12-19T05:10:28.125Z,80.30
2022-12-19T05:12:57.506Z,86.20
2022-12-19T05:15:29.241Z,78.88
2022-12-19T05:17:59.159Z,81.75
2022-12-19T05:20:30.845Z,78.72
2022-12-19T05:23:04.370Z,76.28
2022-12-19T05:25:36.145Z,68.82
2022-12-19T05:28:06.329Z,61.53
2022-12-19T05:30:39.410Z,60.22
2022-12-19T05:33:11.556Z,67.40
2022-12-19T05:35:41.740Z,57.25
2022-12-19T05:38:12.566Z,56.67
2022-12-19T05:40:42.815Z,56.00
2022-12-19T05:43:15.310Z,55.50
2022-12-19T05:45:44.353Z,70.55
2022-12-19T05:48:14.618Z,60.70
2022-12-19T05:50:49.469Z,72.50
2022-12-19T05:56:16.608Z,74.57
2022-12-19T05:58:48.621Z,77.70
2022-12-19T06:01:24.780Z,79.82
2022-12-19T06:03:55.961Z,84.20
2022-12-19T06:06:28.676Z,84.15
2022-12-19T06:08:59.261Z,83.93
2022-12-19T06:11:31.456Z,84.50
2022-12-19T06:14:02.343Z,82.70
2022-12-19T06:16:35.946Z,87.78
2022-12-19T06:19:05.363Z,89.63
2022-12-19T06:21:42.254Z,79.03
2022-12-19T06:24:20.896Z,90.55
2022-12-19T06:26:50.107Z,78.63
2022-12-19T06:29:21.916Z,84.13
2022-12-19T06:31:56.728Z,81.30
2022-12-19T06:35:02.370Z,80.65
2022-12-19T06:37:20.020Z,80.07
2022-12-19T06:39:50.452Z,89.80
2022-12-19T06:42:25.193Z,97.40
2022-12-19T06:44:56.315Z,98.40
2022-12-19T06:47:28.117Z,95.00
2022-12-19T06:49:58.755Z,96.90
2022-12-19T06:52:28.644Z,99.78
2022-12-19T06:54:57.639Z,95.20
2022-12-19T06:57:35.704Z,96.07
2022-12-19T07:00:07.013Z,90.03
2022-12-19T07:02:36.144Z,112.07
2022-12-19T07:05:10.214Z,102.05
2022-12-19T07:07:39.790Z,102.03
2022-12-19T07:10:10.555Z,102.88
2022-12-19T07:12:40.947Z,81.95
2022-12-19T07:15:12.174Z,80.60
2022-12-19T07:17:44.693Z,77.18
2022-12-19T07:20:16.231Z,67.13
2022-12-19T07:22:47.156Z,72.53
2022-12-19T07:25:18.663Z,71.13
2022-12-19T07:27:51.104Z,69.70
2022-12-19T07:30:26.928Z,70.82
2022-12-19T07:33:02.552Z,76.40
2022-12-19T07:35:38.320Z,70.22
2022-12-19T07:38:14.889Z,66.68
2022-12-19T07:40:50.133Z,60.88
2022-12-19T07:43:20.812Z,65.13
2022-12-19T07:45:55.956Z,69.30
2022-12-19T07:48:30.810Z,69.97
2022-12-19T07:50:59.344Z,68.50
2022-12-19T07:53:32.820Z,64.32
2022-12-19T07:56:08.725Z,61.58
2022-12-19T07:58:40.748Z,66.55
2022-12-19T08:01:10.949Z,64.05
2022-12-19T08:03:41.423Z,64.50
2022-12-19T08:06:10.484Z,65.38
2022-12-19T08:08:40.789Z,63.22
2022-12-19T08:11:20.429Z,60.20
2022-12-19T08:13:52.369Z,61.95
2022-12-19T08:16:20.791Z,60.03
2022-12-19T08:18:50.428Z,78.18
2022-12-19T08:21:19.455Z,67.95
2022-12-19T08:23:47.239Z,89.65
2022-12-19T08:26:26.104Z,189.45
2022-12-19T08:28:56.291Z,87.30
2022-12-19T08:31:29.664Z,124.60
2022-12-19T08:33:59.970Z,82.22
2022-12-19T08:36:30.471Z,97.43
2022-12-19T08:38:58.735Z,70.10
2022-12-19T08:41:29.853Z,80.38
2022-12-19T08:44:04.707Z,61.65
2022-12-19T08:46:34.366Z,59.30
2022-12-19T08:49:03.248Z,51.70
2022-12-19T08:51:33.755Z,55.45
2022-12-19T08:54:07.778Z,53.63
2022-12-19T08:56:46.002Z,53.60
2022-12-19T08:59:30.810Z,51.95
2022-12-19T09:02:01.428Z,50.08
2022-12-19T09:06:00.651Z,49.30
2022-12-19T09:07:22.519Z,57.70
2022-12-19T09:09:54.189Z,49.58
2022-12-19T09:12:25.560Z,48.38
2022-12-19T09:14:56.938Z,56.30
2022-12-19T09:17:24.859Z,47.78
2022-12-19T09:19:56.789Z,47.95
2022-12-19T09:22:29.313Z,50.17
2022-12-19T09:25:00.922Z,49.80
2022-12-19T09:27:29.547Z,49.47
2022-12-19T09:29:57.377Z,47.78
2022-12-19T09:32:28.117Z,49.00
2022-12-19T09:34:58.788Z,44.75
2022-12-19T09:37:27.324Z,41.58
2022-12-19T09:39:59.299Z,42.20
2022-12-19T09:42:41.600Z,39.63
2022-12-19T09:46:04.045Z,41.15
2022-12-19T09:48:38.318Z,37.80
2022-12-19T09:51:29.401Z,43.03
2022-12-19T09:54:24.068Z,40.92
2022-12-19T09:57:04.439Z,24.45
2022-12-19T09:59:56.202Z,44.50
2022-12-19T10:02:42.547Z,40.25
2022-12-19T10:06:25.495Z,36.45
2022-12-19T10:09:16.662Z,37.20
2022-12-19T10:12:42.763Z,35.90
2022-12-19T10:15:15.502Z,43.03
2022-12-19T10:18:17.465Z,34.47
2022-12-19T10:20:59.569Z,44.92
2022-12-19T10:24:12.411Z,43.53
2022-12-19T10:26:55.861Z,41.17
2022-12-19T10:29:59.572Z,38.25
2022-12-19T10:33:12.186Z,41.33
2022-12-19T10:36:01.824Z,40.58
2022-12-19T10:39:31.006Z,36.72
2022-12-19T10:42:18.121Z,33.30
2022-12-19T10:44:49.862Z,36.85
2022-12-19T10:47:25.376Z,36.65
2022-12-19T10:49:57.563Z,39.97
2022-12-19T10:52:54.828Z,36.33
2022-12-19T10:56:20.022Z,32.85
2022-12-19T10:59:01.630Z,32.22
2022-12-19T11:01:51.722Z,42.45
2022-12-19T11:04:35.280Z,43.90
2022-12-19T11:07:22.408Z,38.47
2022-12-19T11:10:35.755Z,36.22
2022-12-19T11:17:07.007Z,40.75
2022-12-19T11:20:02.735Z,36.33
2022-12-19T11:29:17.815Z,34.88
2022-12-19T11:29:33.696Z,36.15
2022-12-19T11:29:41.739Z,33.13
2022-12-19T11:30:36.679Z,25.60
2022-12-19T11:31:51.387Z,40.45
2022-12-19T11:33:26.499Z,48.13
2022-12-19T11:35:59.013Z,44.35
2022-12-19T11:38:56.279Z,53.60
2022-12-19T11:41:43.659Z,38.33
2022-12-19T11:44:32.905Z,40.67
2022-12-19T11:47:58.194Z,42.75
2022-12-19T11:50:44.796Z,36.47
2022-12-19T11:53:38.361Z,36.33
2022-12-19T11:56:38.390Z,35.53
2022-12-19T11:59:33.045Z,41.25
2022-12-19T12:02:19.041Z,46.60
2022-12-19T12:05:11.040Z,35.65
2022-12-19T12:09:36.096Z,39.92
2022-12-19T12:15:11.883Z,44.22
2022-12-19T12:20:46.244Z,39.13
2022-12-19T12:29:55.787Z,48.17
2022-12-19T12:31:08.058Z,39.83
2022-12-19T12:31:20.455Z,39.75
2022-12-19T12:35:09.401Z,43.60
2022-12-19T12:35:29.218Z,50.70
2022-12-19T12:35:47.067Z,40.75
2022-12-19T12:38:27.714Z,43.40
2022-12-19T12:41:54.140Z,39.72
2022-12-19T12:44:33.421Z,40.10
2022-12-19T12:47:27.170Z,40.08
2022-12-19T12:50:02.789Z,44.45
2022-12-19T12:52:44.520Z,41.50
2022-12-19T12:55:42.963Z,41.30
2022-12-19T12:58:54.613Z,36.70
2022-12-19T13:01:24.935Z,40.03
2022-12-19T13:04:11.477Z,48.58
2022-12-19T13:07:39.292Z,39.72
2022-12-19T13:10:24.979Z,38.30
2022-12-19T13:13:14.967Z,50.30
2022-12-19T13:15:49.660Z,40.63
2022-12-19T13:18:40.300Z,51.27
2022-12-19T13:21:09.797Z,48.25
2022-12-19T13:23:47.987Z,39.50
2022-12-19T13:26:49.444Z,38.47
2022-12-19T13:29:28.663Z,53.22
2022-12-19T13:32:19.488Z,43.00
2022-12-19T13:34:56.394Z,47.83
2022-12-19T13:39:50.421Z,42.67
2022-12-19T13:41:25.471Z,44.90
2022-12-19T13:44:06.459Z,46.92
2022-12-19T13:46:48.293Z,39.97
2022-12-19T13:49:40.670Z,39.00
2022-12-19T13:52:15.114Z,39.83
2022-12-19T14:00:42.984Z,44.38
2022-12-19T14:03:21.269Z,54.00
2022-12-19T14:06:17.013Z,56.03
2022-12-19T14:08:44.723Z,44.25
2022-12-19T14:11:34.338Z,42.97
2022-12-19T14:15:13.192Z,39.38
2022-12-19T14:17:47.895Z,45.83
2022-12-19T14:22:04.369Z,48.23
2022-12-19T14:23:42.596Z,44.10
2022-12-19T14:28:20.805Z,43.38
2022-12-19T14:30:29.034Z,47.63
2022-12-19T14:33:45.063Z,46.83
2022-12-19T14:36:10.603Z,46.42
2022-12-19T14:39:23.615Z,45.30
2022-12-19T14:42:17.025Z,48.13
2022-12-19T14:53:08.625Z,45.55
2022-12-19T14:54:15.327Z,68.50
2022-12-19T14:54:31.360Z,56.15
2022-12-19T14:58:51.509Z,49.58
2022-12-19T15:00:50.721Z,49.22
2022-12-19T15:03:42.470Z,55.67
2022-12-19T15:07:05.564Z,51.65
2022-12-19T15:11:07.283Z,55.00
2022-12-19T15:14:03.934Z,48.72
2022-12-19T15:15:36.375Z,52.40
2022-12-19T15:18:24.677Z,50.95
2022-12-19T15:20:59.202Z,54.13
2022-12-19T15:23:31.295Z,54.60
2022-12-19T15:26:14.830Z,54.83
2022-12-19T15:28:54.072Z,55.83
2022-12-19T15:31:43.070Z,52.25
2022-12-19T15:34:50.504Z,52.00
2022-12-19T15:37:19.794Z,51.63
2022-12-19T15:39:50.181Z,50.30
2022-12-19T15:45:47.800Z,56.78
2022-12-19T15:48:17.533Z,64.50
2022-12-19T15:50:52.834Z,56.80
2022-12-19T15:53:40.405Z,59.70
2022-12-19T15:56:36.152Z,52.33
2022-12-19T15:59:07.028Z,55.65
2022-12-19T16:01:37.257Z,48.22
2022-12-19T16:04:14.070Z,53.72
2022-12-19T16:06:47.055Z,49.70
2022-12-19T16:09:28.664Z,47.42
2022-12-19T16:12:03.503Z,49.88
2022-12-19T16:14:32.923Z,49.33
2022-12-19T16:17:03.316Z,47.63
2022-12-19T16:19:31.354Z,45.72
2022-12-19T16:22:02.033Z,50.72
2022-12-19T16:24:33.188Z,51.05
2022-12-19T16:27:04.359Z,54.28
2022-12-19T16:29:41.683Z,61.28
2022-12-19T16:32:13.488Z,55.10
2022-12-19T16:34:41.925Z,64.28
2022-12-19T16:37:09.782Z,62.47
2022-12-19T16:39:40.057Z,53.25
2022-12-19T16:42:22.303Z,54.15
2022-12-19T16:44:53.243Z,52.63
2022-12-19T16:47:22.379Z,50.45
2022-12-19T16:49:54.419Z,46.33
2022-12-19T16:52:25.192Z,57.75
2022-12-19T16:54:53.919Z,52.95
2022-12-19T16:57:25.042Z,45.15
2022-12-19T16:59:55.216Z,53.05
2022-12-19T17:02:52.107Z,53.58
2022-12-19T17:05:26.314Z,53.03
2022-12-19T17:07:59.749Z,36.88
2022-12-19T17:10:34.674Z,55.92
2022-12-19T17:13:05.113Z,46.40
2022-12-19T17:15:37.752Z,56.72
2022-12-19T17:18:24.307Z,54.97
2022-12-19T17:20:54.237Z,54.55
2022-12-19T17:23:27.043Z,63.97
2022-12-19T17:25:57.283Z,74.93
2022-12-19T17:28:28.353Z,60.25
2022-12-19T17:31:10.948Z,55.00
2022-12-19T17:33:49.095Z,51.00
2022-12-19T17:36:25.493Z,66.30
2022-12-19T17:38:54.367Z,55.20
2022-12-19T17:41:25.951Z,58.03
2022-12-19T17:44:00.249Z,56.78
2022-12-19T17:46:28.631Z,48.30
2022-12-19T17:49:00.170Z,41.33
2022-12-19T17:51:29.075Z,44.15
2022-12-19T17:54:00.199Z,36.60
2022-12-19T17:56:32.863Z,38.95
2022-12-19T17:59:03.293Z,38.78
2022-12-19T18:01:33.478Z,37.83
2022-12-19T18:04:05.854Z,39.08
2022-12-19T18:06:40.433Z,41.25
2022-12-19T18:09:27.593Z,37.47
2022-12-19T18:11:54.752Z,34.03
2022-12-19T18:14:24.992Z,44.10
2022-12-19T18:16:56.734Z,39.25
2022-12-19T18:19:30.428Z,30.52
2022-12-19T18:21:59.762Z,33.42
2022-12-19T18:27:17.310Z,30.52
2022-12-19T18:29:48.343Z,30.40
2022-12-19T18:32:22.466Z,30.15
2022-12-19T18:34:52.457Z,28.77
2022-12-19T18:37:21.109Z,36.03
2022-12-19T18:40:04.615Z,31.20
2022-12-19T18:42:33.467Z,32.35
2022-12-19T18:45:03.032Z,31.67
2022-12-19T18:47:30.815Z,31.52
2022-12-19T18:50:00.345Z,30.33
2022-12-19T18:52:42.592Z,36.78
2022-12-19T18:55:17.347Z,32.45
2022-12-19T18:57:50.637Z,31.67
2022-12-19T19:00:25.620Z,40.40
2022-12-19T19:03:08.913Z,30.48
2022-12-19T19:05:44.887Z,36.13
2022-12-19T19:08:17.362Z,39.40
2022-12-19T19:11:00.141Z,35.15
2022-12-19T19:13:30.655Z,34.33
2022-12-19T19:16:11.609Z,36.22
2022-12-19T19:18:44.375Z,33.13
2022-12-19T19:21:17.973Z,40.83
2022-12-19T19:23:59.480Z,31.80
2022-12-19T19:26:30.813Z,41.67
2022-12-19T19:29:02.303Z,38.83
2022-12-19T19:31:36.993Z,35.20
2022-12-19T19:34:21.656Z,34.92
2022-12-19T19:36:56.374Z,38.70
2022-12-19T19:39:31.010Z,32.17
2022-12-19T19:42:05.556Z,35.58
2022-12-19T19:44:35.570Z,38.50
2022-12-19T19:47:07.773Z,38.50
2022-12-19T19:49:36.931Z,39.73
2022-12-19T19:52:07.089Z,34.45
2022-12-19T19:54:38.853Z,38.72
2022-12-19T19:57:16.021Z,40.53
2022-12-19T19:59:48.433Z,38.92
2022-12-19T20:02:32.911Z,35.78
2022-12-19T20:05:03.279Z,41.30
2022-12-19T20:07:35.568Z,36.97
2022-12-19T20:10:10.513Z,45.10
2022-12-19T20:12:40.628Z,39.97
2022-12-19T20:15:16.784Z,36.83
2022-12-19T20:17:47.407Z,36.28
2022-12-19T20:20:17.671Z,39.67
2022-12-19T20:22:47.647Z,36.35
2022-12-19T20:25:15.936Z,34.10
2022-12-19T20:27:47.828Z,36.75
2022-12-19T20:30:18.233Z,41.08
2022-12-19T20:33:08.376Z,41.10
2022-12-19T20:35:41.442Z,37.83
2022-12-19T20:38:18.088Z,33.53
2022-12-19T20:41:03.540Z,36.42
2022-12-19T20:43:31.357Z,34.63
2022-12-19T20:46:10.526Z,35.97
2022-12-19T20:48:39.643Z,32.97
2022-12-19T20:51:16.090Z,38.40
2022-12-19T20:53:44.578Z,42.03
2022-12-19T20:56:18.313Z,43.15
2022-12-19T20:58:48.239Z,35.50
2022-12-19T21:01:23.314Z,34.05
2022-12-19T21:03:56.344Z,34.50
2022-12-19T21:06:29.691Z,43.08
2022-12-19T21:11:48.069Z,33.65
2022-12-19T21:14:21.257Z,36.92
2022-12-19T21:16:52.663Z,36.25
2022-12-19T21:19:23.324Z,39.13
2022-12-19T21:21:52.341Z,42.17
2022-12-19T21:24:24.934Z,37.83
2022-12-19T21:26:59.416Z,39.00
2022-12-19T21:29:28.371Z,42.08
2022-12-19T21:32:01.830Z,43.15
2022-12-19T21:34:31.448Z,39.92
2022-12-19T21:37:03.228Z,36.40
2022-12-19T21:39:37.948Z,39.80
2022-12-19T21:42:09.881Z,37.38
2022-12-19T21:44:43.467Z,34.53
2022-12-19T21:47:16.704Z,36.58
2022-12-19T21:49:44.594Z,38.15
2022-12-19T21:52:13.220Z,35.92
2022-12-19T21:54:44.000Z,33.40
2022-12-19T21:57:14.480Z,32.63
2022-12-19T21:59:42.766Z,35.75
2022-12-19T22:02:21.486Z,34.08
2022-12-19T22:04:54.749Z,29.65
2022-12-19T22:07:25.914Z,44.55
2022-12-19T22:09:56.848Z,34.28
2022-12-19T22:12:27.485Z,35.30
2022-12-19T22:14:57.609Z,33.38
2022-12-19T22:17:27.688Z,36.75
2022-12-19T22:20:41.638Z,32.00
2022-12-19T22:23:31.359Z,32.92
2022-12-19T22:26:20.286Z,33.58
2022-12-19T22:28:52.427Z,31.77
2022-12-19T22:31:32.314Z,37.65
2022-12-19T22:34:06.756Z,38.42
2022-12-19T22:36:38.452Z,33.70
2022-12-19T22:39:26.778Z,33.00
2022-12-19T22:41:54.032Z,35.58
2022-12-19T22:44:24.109Z,34.00
2022-12-19T22:46:54.851Z,33.42
2022-12-19T22:49:24.400Z,33.33
2022-12-19T22:51:53.452Z,34.45
2022-12-19T22:54:24.492Z,37.67
2022-12-19T22:56:53.891Z,36.50
2022-12-19T22:59:21.989Z,39.25
2022-12-19T23:01:52.755Z,32.90
2022-12-19T23:04:25.922Z,31.65
2022-12-19T23:06:59.421Z,32.97
2022-12-19T23:09:44.211Z,38.92
2022-12-19T23:12:17.891Z,33.70
2022-12-19T23:14:49.461Z,25.98
2022-12-19T23:17:20.202Z,32.22
2022-12-19T23:19:54.581Z,32.78
2022-12-19T23:22:25.781Z,34.97
2022-12-19T23:24:58.445Z,33.20
2022-12-19T23:27:29.287Z,31.48
2022-12-19T23:30:08.623Z,33.92
2022-12-19T23:32:50.325Z,35.53
2022-12-19T23:35:21.199Z,29.13
2022-12-19T23:37:55.372Z,31.08
2022-12-19T23:40:29.722Z,35.97
2022-12-19T23:42:57.072Z,41.17
2022-12-19T23:45:27.335Z,35.75
2022-12-19T23:48:00.836Z,38.53
2022-12-19T23:50:32.576Z,37.65
2022-12-19T23:53:07.781Z,37.35
2022-12-19T23:55:39.743Z,35.13
2022-12-19T23:58:14.578Z,36.50
